createdAt,value
2023-04-02T00:01:51.659Z,52.47
2023-04-02T00:05:26.001Z,52.49
2023-04-02T00:08:38.801Z,52.49
2023-04-02T00:11:48.463Z,52.49
2023-04-02T00:14:54.197Z,52.43
2023-04-02T00:17:57.659Z,52.43
2023-04-02T00:21:12.019Z,52.43
2023-04-02T00:24:21.282Z,52.46
2023-04-02T00:27:23.642Z,52.45
2023-04-02T00:30:25.763Z,52.48
2023-04-02T00:33:31.365Z,52.47
2023-04-02T00:36:34.610Z,52.49
2023-04-02T00:39:42.195Z,52.48
2023-04-02T00:42:46.577Z,52.44
2023-04-02T00:45:55.884Z,52.46
2023-04-02T00:49:10.656Z,52.48
2023-04-02T00:52:17.005Z,52.48
2023-04-02T00:55:27.879Z,52.49
2023-04-02T00:58:36.745Z,52.46
2023-04-02T01:01:42.763Z,52.44
2023-04-02T01:04:54.374Z,52.42
2023-04-02T01:08:17.515Z,52.46
2023-04-02T01:11:40.221Z,52.43
2023-04-02T01:14:54.461Z,52.49
2023-04-02T01:18:06.671Z,52.51
2023-04-02T01:21:28.999Z,52.49
2023-04-02T01:24:33.532Z,52.49
2023-04-02T01:27:51.049Z,52.56
2023-04-02T01:30:58.171Z,52.55
2023-04-02T01:34:02.153Z,52.54
2023-04-02T01:37:22.693Z,52.59
2023-04-02T01:40:44.194Z,52.58
2023-04-02T01:43:51.708Z,52.59
2023-04-02T01:46:53.862Z,52.53
2023-04-02T01:50:10.911Z,52.54
2023-04-02T01:53:15.340Z,52.58
2023-04-02T01:56:17.943Z,52.53
2023-04-02T01:59:23.050Z,52.57
2023-04-02T02:02:25.247Z,52.49
2023-04-02T02:05:28.051Z,52.52
2023-04-02T02:08:46.737Z,52.55
2023-04-02T02:11:50.786Z,52.53
2023-04-02T02:14:52.882Z,52.56
2023-04-02T02:18:06.518Z,52.57
2023-04-02T02:21:10.011Z,52.59
2023-04-02T02:24:27.667Z,52.54
2023-04-02T02:27:30.670Z,52.55
2023-04-02T02:30:48.916Z,52.56
2023-04-02T02:33:53.548Z,52.59
2023-04-02T02:37:06.646Z,52.53
2023-04-02T02:40:19.944Z,52.59
2023-04-02T02:43:22.258Z,52.62
2023-04-02T02:46:26.662Z,52.66
2023-04-02T02:49:32.441Z,52.62
2023-04-02T02:52:38.784Z,52.62
2023-04-02T02:55:41.385Z,52.69
2023-04-02T02:58:44.646Z,52.72
2023-04-02T03:01:47.707Z,52.65
2023-04-02T03:04:53.094Z,52.70
2023-04-02T03:07:58.125Z,52.71
2023-04-02T03:11:06.478Z,52.71
2023-04-02T03:14:24.484Z,52.69
2023-04-02T03:17:36.005Z,52.69
2023-04-02T03:20:58.485Z,52.77
2023-04-02T03:24:34.971Z,52.74
2023-04-02T03:27:42.421Z,52.77
2023-04-02T03:31:01.983Z,52.81
2023-04-02T03:34:25.693Z,52.74
2023-04-02T03:37:38.621Z,52.80
2023-04-02T03:41:04.250Z,52.80
2023-04-02T03:44:16.383Z,52.81
2023-04-02T03:47:31.063Z,52.85
2023-04-02T03:50:52.475Z,52.86
2023-04-02T03:53:55.122Z,52.81
2023-04-02T03:56:58.284Z,52.77
2023-04-02T04:00:22.317Z,52.86
2023-04-02T04:03:37.050Z,52.84
2023-04-02T04:06:42.796Z,52.85
2023-04-02T04:09:46.998Z,52.86
2023-04-02T04:12:51.070Z,52.90
2023-04-02T04:16:04.630Z,52.91
2023-04-02T04:19:19.408Z,52.89
2023-04-02T04:22:33.884Z,52.90
2023-04-02T04:25:37.075Z,52.99
2023-04-02T04:28:47.151Z,52.94
2023-04-02T04:31:55.278Z,53.03
2023-04-02T04:35:19.677Z,53.04
2023-04-02T04:38:39.179Z,53.14
2023-04-02T04:41:42.153Z,53.11
2023-04-02T04:44:51.423Z,53.13
2023-04-02T04:47:59.126Z,53.16
2023-04-02T04:51:08.779Z,53.17
2023-04-02T04:54:14.039Z,53.19
2023-04-02T04:57:32.824Z,53.23
2023-04-02T05:00:50.042Z,53.25
2023-04-02T05:03:58.100Z,53.27
2023-04-02T05:07:17.451Z,53.01
2023-04-02T05:10:35.485Z,53.16
2023-04-02T05:13:58.965Z,53.26
2023-04-02T05:17:04.042Z,53.33
2023-04-02T05:20:16.296Z,53.32
2023-04-02T05:23:20.613Z,53.43
2023-04-02T05:26:30.516Z,53.46
2023-04-02T05:29:36.788Z,53.39
2023-04-02T05:32:48.310Z,53.38
2023-04-02T05:35:55.942Z,53.43
2023-04-02T05:38:59.606Z,53.44
2023-04-02T05:42:08.385Z,53.35
2023-04-02T05:45:38.985Z,53.39
2023-04-02T05:48:43.624Z,53.36
2023-04-02T05:51:50.293Z,53.56
2023-04-02T05:55:11.394Z,52.65
2023-04-02T06:01:35.369Z,51.29
2023-04-02T06:04:47.327Z,51.26
2023-04-02T06:08:37.863Z,51.09
2023-04-02T06:11:51.346Z,50.96
2023-04-02T06:14:53.378Z,50.94
2023-04-02T06:18:23.913Z,50.90
2023-04-02T06:21:26.859Z,50.67
2023-04-02T06:24:30.316Z,50.40
2023-04-02T06:27:34.718Z,50.51
2023-04-02T06:30:39.936Z,50.48
2023-04-02T06:33:42.982Z,50.51
2023-04-02T06:36:46.150Z,50.59
2023-04-02T06:39:48.232Z,50.53
2023-04-02T06:42:52.471Z,50.57
2023-04-02T06:45:58.163Z,50.40
2023-04-02T06:49:21.357Z,50.12
2023-04-02T06:52:31.158Z,50.02
2023-04-02T06:55:44.830Z,49.82
2023-04-02T06:58:46.981Z,49.46
2023-04-02T07:01:57.080Z,49.09
2023-04-02T07:05:04.064Z,49.45
2023-04-02T07:08:06.934Z,49.73
2023-04-02T07:11:14.517Z,49.44
2023-04-02T07:14:16.571Z,49.73
2023-04-02T07:17:19.565Z,50.53
2023-04-02T07:20:28.507Z,50.27
2023-04-02T07:23:30.906Z,50.81
2023-04-02T07:26:32.985Z,51.33
2023-04-02T07:29:35.005Z,51.39
2023-04-02T07:32:38.245Z,50.86
2023-04-02T07:35:40.739Z,52.01
2023-04-02T07:38:43.466Z,51.52
2023-04-02T07:41:56.053Z,51.26
2023-04-02T07:44:58.216Z,50.92
2023-04-02T07:48:07.469Z,50.22
2023-04-02T07:51:21.624Z,49.33
2023-04-02T07:54:23.696Z,49.53
2023-04-02T07:57:25.802Z,49.18
2023-04-02T08:00:29.187Z,49.46
2023-04-02T08:03:31.411Z,49.18
2023-04-02T08:06:33.718Z,49.29
2023-04-02T08:09:36.008Z,50.19
2023-04-02T08:12:38.287Z,50.18
2023-04-02T08:15:41.080Z,50.56
2023-04-02T08:18:43.219Z,50.85
2023-04-02T08:21:45.617Z,50.72
2023-04-02T08:24:47.666Z,50.51
2023-04-02T08:27:50.259Z,49.96
2023-04-02T08:30:52.696Z,50.02
2023-04-02T08:33:56.780Z,50.37
2023-04-02T08:36:59.145Z,50.97
2023-04-02T08:40:01.176Z,50.98
2023-04-02T08:43:30.992Z,51.29
2023-04-02T08:46:46.310Z,52.32
2023-04-02T08:49:55.862Z,51.13
2023-04-02T08:52:59.574Z,50.35
2023-04-02T08:56:19.014Z,50.37
2023-04-02T08:59:34.620Z,50.20
2023-04-02T09:02:41.545Z,50.18
2023-04-02T09:05:45.777Z,50.16
2023-04-02T09:08:50.221Z,50.05
2023-04-02T09:12:00.659Z,50.05
2023-04-02T09:15:29.416Z,50.15
2023-04-02T09:18:33.265Z,50.05
2023-04-02T09:21:45.798Z,49.71
2023-04-02T09:24:55.296Z,49.53
2023-04-02T09:28:01.619Z,49.48
2023-04-02T09:31:22.160Z,49.44
2023-04-02T09:34:36.368Z,49.34
2023-04-02T09:37:39.161Z,49.43
2023-04-02T09:40:56.775Z,49.46
2023-04-02T09:44:24.120Z,49.41
2023-04-02T09:47:28.707Z,49.38
2023-04-02T09:50:33.953Z,49.66
2023-04-02T09:53:41.124Z,49.82
2023-04-02T09:57:04.518Z,49.87
2023-04-02T10:00:25.267Z,49.90
2023-04-02T10:03:34.388Z,49.40
2023-04-02T10:06:36.689Z,48.98
2023-04-02T10:09:39.101Z,48.87
2023-04-02T10:12:43.276Z,48.92
2023-04-02T10:16:07.013Z,48.98
2023-04-02T10:19:33.989Z,49.12
2023-04-02T10:22:36.344Z,49.20
2023-04-02T10:25:48.432Z,49.32
2023-04-02T10:29:32.619Z,49.32
2023-04-02T10:32:38.271Z,49.53
2023-04-02T10:36:07.315Z,49.34
2023-04-02T10:39:26.048Z,49.56
2023-04-02T10:43:10.134Z,49.44
2023-04-02T10:46:12.138Z,49.53
2023-04-02T10:49:36.150Z,49.63
2023-04-02T10:53:01.581Z,49.46
2023-04-02T10:56:09.195Z,49.15
2023-04-02T10:59:24.088Z,48.63
2023-04-02T11:02:37.563Z,48.41
2023-04-02T11:05:51.477Z,48.34
2023-04-02T11:08:59.215Z,48.59
2023-04-02T11:12:03.403Z,48.66
2023-04-02T11:15:13.956Z,48.71
2023-04-02T11:18:38.881Z,48.69
2023-04-02T11:22:01.998Z,48.83
2023-04-02T11:25:21.902Z,48.99
2023-04-02T11:28:30.015Z,49.27
2023-04-02T11:31:33.032Z,49.82
2023-04-02T11:35:03.078Z,50.56
2023-04-02T11:38:10.811Z,50.86
2023-04-02T11:41:12.872Z,49.49
2023-04-02T11:44:24.577Z,49.33
2023-04-02T11:47:29.619Z,49.56
2023-04-02T11:50:39.166Z,49.79
2023-04-02T11:53:43.244Z,50.04
2023-04-02T11:57:05.050Z,50.21
2023-04-02T12:00:19.403Z,50.50
2023-04-02T12:03:52.340Z,50.38
2023-04-02T12:07:46.562Z,50.80
2023-04-02T12:10:55.997Z,50.80
2023-04-02T12:13:59.953Z,50.66
2023-04-02T12:17:05.786Z,50.74
2023-04-02T12:20:09.654Z,50.83
2023-04-02T12:23:26.497Z,50.60
2023-04-02T12:26:32.147Z,50.68
2023-04-02T12:29:34.361Z,50.80
2023-04-02T12:32:36.558Z,50.86
2023-04-02T12:35:38.875Z,50.92
2023-04-02T12:38:49.125Z,50.97
2023-04-02T12:41:51.404Z,51.04
2023-04-02T12:44:53.761Z,51.14
2023-04-02T12:47:56.911Z,51.16
2023-04-02T12:50:59.650Z,51.17
2023-04-02T12:54:01.746Z,51.12
2023-04-02T12:57:25.790Z,51.25
2023-04-02T13:00:32.235Z,51.29
2023-04-02T13:03:34.355Z,51.31
2023-04-02T13:06:36.837Z,51.36
2023-04-02T13:09:55.109Z,51.43
2023-04-02T13:13:00.375Z,51.41
2023-04-02T13:16:23.022Z,51.42
2023-04-02T13:19:32.903Z,51.43
2023-04-02T13:22:35.012Z,51.50
2023-04-02T13:25:37.598Z,51.49
2023-04-02T13:28:39.749Z,51.43
2023-04-02T13:31:41.943Z,51.54
2023-04-02T13:34:43.980Z,51.58
2023-04-02T13:37:46.051Z,51.59
2023-04-02T13:40:48.322Z,51.60
2023-04-02T13:43:51.939Z,51.67
2023-04-02T13:46:55.624Z,51.72
2023-04-02T13:49:57.851Z,51.65
2023-04-02T13:53:05.090Z,51.64
2023-04-02T13:56:08.361Z,51.61
2023-04-02T13:59:11.396Z,51.70
2023-04-02T14:02:17.776Z,51.65
2023-04-02T14:05:41.827Z,51.55
2023-04-02T14:09:05.647Z,51.55
2023-04-02T14:12:46.079Z,51.59
2023-04-02T14:16:04.087Z,51.58
2023-04-02T14:19:24.753Z,51.17
2023-04-02T14:22:51.626Z,50.97
2023-04-02T14:26:19.781Z,50.66
2023-04-02T14:29:32.851Z,50.85
2023-04-02T14:32:43.584Z,50.93
2023-04-02T14:35:55.165Z,50.63
2023-04-02T14:39:25.406Z,50.83
2023-04-02T14:42:53.686Z,51.02
2023-04-02T14:45:58.895Z,51.24
2023-04-02T14:49:07.425Z,51.47
2023-04-02T14:52:16.886Z,51.72
2023-04-02T14:55:23.704Z,51.60
2023-04-02T14:58:33.555Z,51.62
2023-04-02T15:01:40.892Z,51.63
2023-04-02T15:04:50.912Z,51.66
2023-04-02T15:08:00.309Z,51.65
2023-04-02T15:11:21.041Z,51.67
2023-04-02T15:14:32.799Z,51.63
2023-04-02T15:17:36.053Z,51.62
2023-04-02T15:21:07.720Z,51.59
2023-04-02T15:24:21.746Z,51.63
2023-04-02T15:28:08.309Z,51.76
2023-04-02T15:31:14.971Z,51.66
2023-04-02T15:34:24.320Z,51.73
2023-04-02T15:37:44.239Z,51.68
2023-04-02T15:41:10.619Z,51.72
2023-04-02T15:44:17.015Z,51.64
2023-04-02T15:47:36.955Z,51.69
2023-04-02T15:51:15.696Z,51.68
2023-04-02T15:54:40.219Z,51.72
2023-04-02T15:58:05.418Z,51.75
2023-04-02T16:01:28.690Z,51.76
2023-04-02T16:04:40.839Z,51.75
2023-04-02T16:08:00.952Z,51.71
2023-04-02T16:11:03.001Z,51.75
2023-04-02T16:14:25.378Z,51.77
2023-04-02T16:17:36.252Z,51.79
2023-04-02T16:20:47.495Z,51.78
2023-04-02T16:23:49.984Z,51.79
2023-04-02T16:27:15.101Z,51.78
2023-04-02T16:30:36.086Z,51.73
2023-04-02T16:33:56.723Z,51.85
2023-04-02T16:37:21.564Z,51.76
2023-04-02T16:40:49.501Z,51.79
2023-04-02T16:44:24.352Z,51.81
2023-04-02T16:47:35.167Z,51.86
2023-04-02T16:50:46.738Z,51.85
2023-04-02T16:54:15.783Z,51.88
2023-04-02T16:57:34.652Z,51.87
2023-04-02T17:00:58.674Z,51.89
2023-04-02T17:04:29.234Z,51.91
2023-04-02T17:07:54.693Z,51.95
2023-04-02T17:11:04.995Z,52.00
2023-04-02T17:14:13.942Z,52.03
2023-04-02T17:17:16.266Z,51.99
2023-04-02T17:20:23.515Z,52.04
2023-04-02T17:23:27.631Z,52.11
2023-04-02T17:26:32.579Z,52.06
2023-04-02T17:29:41.942Z,52.17
2023-04-02T17:32:44.496Z,52.17
2023-04-02T17:36:08.432Z,52.24
2023-04-02T17:39:31.263Z,52.23
2023-04-02T17:42:53.948Z,52.29
2023-04-02T17:45:59.157Z,52.31
2023-04-02T17:49:25.148Z,52.33
2023-04-02T17:52:41.668Z,52.43
2023-04-02T17:56:17.453Z,52.40
2023-04-02T17:59:27.021Z,52.53
2023-04-02T18:02:38.833Z,52.53
2023-04-02T18:05:51.705Z,52.61
2023-04-02T18:09:11.828Z,52.46
2023-04-02T18:12:27.020Z,52.55
2023-04-02T18:15:59.783Z,52.53
2023-04-02T18:19:18.341Z,52.49
2023-04-02T18:22:38.296Z,52.59
2023-04-02T18:26:00.547Z,52.54
2023-04-02T18:29:24.410Z,52.59
2023-04-02T18:32:45.626Z,52.53
2023-04-02T18:36:18.881Z,52.47
2023-04-02T18:39:30.654Z,52.48
2023-04-02T18:42:48.483Z,52.56
2023-04-02T18:45:59.459Z,52.52
2023-04-02T18:49:18.185Z,52.54
2023-04-02T18:52:21.358Z,52.54
2023-04-02T18:55:28.022Z,52.47
2023-04-02T18:58:52.802Z,52.45
2023-04-02T19:01:56.070Z,52.50
2023-04-02T19:05:20.225Z,52.45
2023-04-02T19:08:27.464Z,52.41
2023-04-02T19:11:31.065Z,52.45
2023-04-02T19:14:33.234Z,52.46
2023-04-02T19:17:46.896Z,52.43
2023-04-02T19:20:58.244Z,52.43
2023-04-02T19:24:21.363Z,52.36
2023-04-02T19:27:41.478Z,52.43
2023-04-02T19:31:15.786Z,52.44
2023-04-02T19:34:25.355Z,52.45
2023-04-02T19:37:52.701Z,52.47
2023-04-02T19:41:13.403Z,52.36
2023-04-02T19:44:16.425Z,52.43
2023-04-02T19:47:19.466Z,52.41
2023-04-02T19:50:21.752Z,52.44
2023-04-02T19:53:23.751Z,52.43
2023-04-02T19:56:26.751Z,52.42
2023-04-02T19:59:28.796Z,52.36
2023-04-02T20:02:30.823Z,52.40
2023-04-02T20:05:32.964Z,52.36
2023-04-02T20:08:36.236Z,52.41
2023-04-02T20:11:38.602Z,52.40
2023-04-02T20:14:41.197Z,52.39
2023-04-02T20:17:43.309Z,52.41
2023-04-02T20:20:49.093Z,52.45
2023-04-02T20:23:55.046Z,52.49
2023-04-02T20:26:57.290Z,52.36
2023-04-02T20:29:59.400Z,52.45
2023-04-02T20:33:01.584Z,52.46
2023-04-02T20:36:09.441Z,52.50
2023-04-02T20:39:17.814Z,52.41
2023-04-02T20:42:21.055Z,52.37
2023-04-02T20:45:24.311Z,52.36
2023-04-02T20:48:28.123Z,52.41
2023-04-02T20:51:30.265Z,52.40
2023-04-02T20:54:32.353Z,52.43
2023-04-02T20:57:34.506Z,52.54
2023-04-02T21:00:37.240Z,52.54
2023-04-02T21:03:39.977Z,52.63
2023-04-02T21:06:42.319Z,52.62
2023-04-02T21:09:44.506Z,52.70
2023-04-02T21:12:46.835Z,52.60
2023-04-02T21:15:49.101Z,52.67
2023-04-02T21:18:53.136Z,52.67
2023-04-02T21:21:55.441Z,52.60
2023-04-02T21:24:57.668Z,52.57
2023-04-02T21:27:59.725Z,52.68
2023-04-02T21:31:03.168Z,52.62
2023-04-02T21:34:06.450Z,52.66
2023-04-02T21:37:08.525Z,52.65
2023-04-02T21:40:10.896Z,52.59
2023-04-02T21:43:12.992Z,52.62
2023-04-02T21:46:20.207Z,52.66
2023-04-02T21:49:23.209Z,52.65
2023-04-02T21:52:25.566Z,52.62
2023-04-02T21:55:27.607Z,52.69
2023-04-02T21:58:29.676Z,52.67
2023-04-02T22:01:35.120Z,52.61
2023-04-02T22:04:37.415Z,52.67
2023-04-02T22:07:39.449Z,52.65
2023-04-02T22:10:41.492Z,52.71
2023-04-02T22:13:45.862Z,52.67
2023-04-02T22:16:47.981Z,52.66
2023-04-02T22:19:50.135Z,52.65
2023-04-02T22:22:52.216Z,52.70
2023-04-02T22:25:55.301Z,52.68
2023-04-02T22:28:57.985Z,52.70
2023-04-02T22:32:00.122Z,52.65
2023-04-02T22:35:02.403Z,52.69
2023-04-02T22:38:04.725Z,52.65
2023-04-02T22:41:08.254Z,52.72
2023-04-02T22:44:14.251Z,52.72
2023-04-02T22:47:16.292Z,52.74
2023-04-02T22:50:19.315Z,52.66
2023-04-02T22:53:21.353Z,52.72
2023-04-02T22:56:28.449Z,52.65
2023-04-02T22:59:30.557Z,52.74
2023-04-02T23:02:32.733Z,52.66
2023-04-02T23:05:34.788Z,52.76
2023-04-02T23:08:38.189Z,52.70
2023-04-02T23:11:40.429Z,52.69
2023-04-02T23:14:42.413Z,52.67
2023-04-02T23:17:44.506Z,52.69
2023-04-02T23:20:46.581Z,52.71
2023-04-02T23:23:50.367Z,52.63
2023-04-02T23:26:52.409Z,52.66
2023-04-02T23:29:54.421Z,52.71
2023-04-02T23:32:56.721Z,52.71
2023-04-02T23:35:58.865Z,52.64
2023-04-02T23:39:04.354Z,52.66
2023-04-02T23:42:06.547Z,52.70
2023-04-02T23:45:09.215Z,52.62
2023-04-02T23:48:11.277Z,52.71
2023-04-02T23:51:14.018Z,52.69
2023-04-02T23:54:16.374Z,52.64
2023-04-02T23:57:18.430Z,52.66
